sensor_id;sensor_type;location;lat;lon;timestamp;pressure;altitude;pressure_sealevel;temperature;humidity
55675;BME280;41562;44.330;23.802;2023-05-11T00:01:52;100605.63;;;11.97;91.61
55675;BME280;41562;44.330;23.802;2023-05-11T00:04:19;100610.44;;;11.90;88.74
55675;BME280;41562;44.330;23.802;2023-05-11T00:06:47;100601.63;;;11.84;88.78
55675;BME280;41562;44.330;23.802;2023-05-11T00:09:14;100605.63;;;11.56;90.17
55675;BME280;41562;44.330;23.802;2023-05-11T00:11:41;100604.84;;;11.76;91.20
55675;BME280;41562;44.330;23.802;2023-05-11T00:14:09;100606.94;;;11.64;89.31
55675;BME280;41562;44.330;23.802;2023-05-11T00:16:36;100611.25;;;11.50;89.08
55675;BME280;41562;44.330;23.802;2023-05-11T00:19:03;100610.72;;;11.58;89.56
55675;BME280;41562;44.330;23.802;2023-05-11T00:21:31;100612.31;;;11.64;91.07
55675;BME280;41562;44.330;23.802;2023-05-11T00:23:58;100619.59;;;11.74;88.58
55675;BME280;41562;44.330;23.802;2023-05-11T00:26:26;100610.72;;;11.68;89.03
55675;BME280;41562;44.330;23.802;2023-05-11T00:28:53;100621.41;;;11.53;89.18
55675;BME280;41562;44.330;23.802;2023-05-11T00:31:20;100624.91;;;11.48;90.90
55675;BME280;41562;44.330;23.802;2023-05-11T00:33:48;100622.22;;;11.58;89.65
55675;BME280;41562;44.330;23.802;2023-05-11T00:36:15;100616.88;;;11.48;89.78
55675;BME280;41562;44.330;23.802;2023-05-11T00:38:42;100608.31;;;11.41;90.17
55675;BME280;41562;44.330;23.802;2023-05-11T00:41:10;100611.53;;;11.48;92.50
55675;BME280;41562;44.330;23.802;2023-05-11T00:43:37;100615.28;;;11.42;90.42
55675;BME280;41562;44.330;23.802;2023-05-11T00:46:05;100614.72;;;11.25;90.79
55675;BME280;41562;44.330;23.802;2023-05-11T00:48:32;100614.19;;;11.18;90.92
55675;BME280;41562;44.330;23.802;2023-05-11T00:51:00;100609.63;;;11.28;91.19
55675;BME280;41562;44.330;23.802;2023-05-11T00:53:29;100612.31;;;11.23;90.21
55675;BME280;41562;44.330;23.802;2023-05-11T00:55:57;100622.50;;;11.37;89.95
55675;BME280;41562;44.330;23.802;2023-05-11T00:58:25;100616.59;;;11.24;90.28
55675;BME280;41562;44.330;23.802;2023-05-11T01:00:53;100620.03;;;11.20;94.04
55675;BME280;41562;44.330;23.802;2023-05-11T01:03:20;100611.25;;;11.24;90.62
55675;BME280;41562;44.330;23.802;2023-05-11T01:06:28;100610.44;;;11.19;91.00
55675;BME280;41562;44.330;23.802;2023-05-11T01:09:12;100606.91;;;11.13;90.36
55675;BME280;41562;44.330;23.802;2023-05-11T01:16:48;100606.66;;;11.05;90.05
55675;BME280;41562;44.330;23.802;2023-05-11T01:19:46;100612.53;;;11.07;90.59
55675;BME280;41562;44.330;23.802;2023-05-11T01:22:33;100613.38;;;11.17;91.44
55675;BME280;41562;44.330;23.802;2023-05-11T01:25:05;100620.59;;;11.12;90.77
55675;BME280;41562;44.330;23.802;2023-05-11T01:27:52;100609.84;;;11.02;90.48
55675;BME280;41562;44.330;23.802;2023-05-11T01:30:26;100628.06;;;11.10;96.00
55675;BME280;41562;44.330;23.802;2023-05-11T01:32:58;100628.00;;;10.89;91.25
55675;BME280;41562;44.330;23.802;2023-05-11T01:35:32;100622.16;;;10.93;90.99
55675;BME280;41562;44.330;23.802;2023-05-11T01:38:03;100615.19;;;11.02;90.06
55675;BME280;41562;44.330;23.802;2023-05-11T01:40:33;100622.16;;;10.98;91.76
55675;BME280;41562;44.330;23.802;2023-05-11T01:43:12;100622.72;;;11.15;88.53
55675;BME280;41562;44.330;23.802;2023-05-11T01:45:44;100622.16;;;11.13;88.47
55675;BME280;41562;44.330;23.802;2023-05-11T01:48:18;100606.06;;;10.87;88.94
55675;BME280;41562;44.330;23.802;2023-05-11T01:50:48;100616.25;;;10.96;93.77
55675;BME280;41562;44.330;23.802;2023-05-11T01:53:17;100617.31;;;10.95;89.54
55675;BME280;41562;44.330;23.802;2023-05-11T01:55:46;100610.34;;;10.83;88.52
55675;BME280;41562;44.330;23.802;2023-05-11T01:58:16;100613.75;;;10.69;88.88
55675;BME280;41562;44.330;23.802;2023-05-11T02:00:45;100610.34;;;10.88;92.57
55675;BME280;41562;44.330;23.802;2023-05-11T02:03:14;100616.25;;;10.96;88.16
55675;BME280;41562;44.330;23.802;2023-05-11T02:05:42;100622.09;;;10.87;87.29
55675;BME280;41562;44.330;23.802;2023-05-11T02:08:11;100616.75;;;10.82;87.43
55675;BME280;41562;44.330;23.802;2023-05-11T02:10:40;100617.28;;;10.79;90.50
55675;BME280;41562;44.330;23.802;2023-05-11T02:13:09;100614.06;;;10.77;88.03
55675;BME280;41562;44.330;23.802;2023-05-11T02:15:39;100614.63;;;10.79;87.07
55675;BME280;41562;44.330;23.802;2023-05-11T02:18:12;100615.66;;;10.68;87.40
55675;BME280;41562;44.330;23.802;2023-05-11T02:20:44;100613.00;;;10.78;88.48
55675;BME280;41562;44.330;23.802;2023-05-11T02:23:12;100609.19;;;10.54;88.39
55675;BME280;41562;44.330;23.802;2023-05-11T02:25:40;100609.75;;;10.61;87.97
55675;BME280;41562;44.330;23.802;2023-05-11T02:28:09;100608.38;;;10.59;89.50
55675;BME280;41562;44.330;23.802;2023-05-11T02:30:44;100604.91;;;10.63;89.77
55675;BME280;41562;44.330;23.802;2023-05-11T02:33:37;100601.69;;;10.56;87.12
55675;BME280;41562;44.330;23.802;2023-05-11T02:36:05;100607.03;;;10.56;86.59
55675;BME280;41562;44.330;23.802;2023-05-11T02:38:34;100604.34;;;10.51;86.52
55675;BME280;41562;44.330;23.802;2023-05-11T02:41:09;100609.50;;;10.68;91.46
55675;BME280;41562;44.330;23.802;2023-05-11T02:43:43;100603.81;;;10.54;87.02
55675;BME280;41562;44.330;23.802;2023-05-11T02:46:14;100614.00;;;10.57;85.38
55675;BME280;41562;44.330;23.802;2023-05-11T02:48:46;100611.78;;;10.39;84.88
55675;BME280;41562;44.330;23.802;2023-05-11T02:51:18;100609.88;;;10.34;85.96
55675;BME280;41562;44.330;23.802;2023-05-11T02:53:48;100618.16;;;10.33;85.40
55675;BME280;41562;44.330;23.802;2023-05-11T02:56:18;100622.16;;;10.30;85.44
55675;BME280;41562;44.330;23.802;2023-05-11T02:58:45;100615.50;;;10.38;85.77
55675;BME280;41562;44.330;23.802;2023-05-11T03:01:13;100623.00;;;10.36;89.72
55675;BME280;41562;44.330;23.802;2023-05-11T03:03:41;100618.72;;;10.35;85.93
55675;BME280;41562;44.330;23.802;2023-05-11T03:06:10;100619.75;;;10.29;86.45
55675;BME280;41562;44.330;23.802;2023-05-11T03:08:37;100618.47;;;11.29;88.01
55675;BME280;41562;44.330;23.802;2023-05-11T03:11:05;100625.59;;;13.04;79.93
55675;BME280;41562;44.330;23.802;2023-05-11T03:13:33;100624.69;;;13.63;76.75
55675;BME280;41562;44.330;23.802;2023-05-11T03:16:02;100622.75;;;13.97;77.59
55675;BME280;41562;44.330;23.802;2023-05-11T03:18:30;100623.81;;;13.39;82.32
55675;BME280;41562;44.330;23.802;2023-05-11T03:20:59;100621.38;;;12.93;74.52
55675;BME280;41562;44.330;23.802;2023-05-11T03:23:28;100624.28;;;13.02;82.84
55675;BME280;41562;44.330;23.802;2023-05-11T03:25:57;100622.38;;;13.07;75.04
55675;BME280;41562;44.330;23.802;2023-05-11T03:28:25;100629.75;;;11.87;78.21
55675;BME280;41562;44.330;23.802;2023-05-11T03:30:54;100628.06;;;11.00;83.31
55675;BME280;41562;44.330;23.802;2023-05-11T03:33:29;100633.00;;;10.66;84.41
55675;BME280;41562;44.330;23.802;2023-05-11T03:35:57;100637.56;;;10.65;88.54
55675;BME280;41562;44.330;23.802;2023-05-11T03:38:27;100638.78;;;11.10;84.32
55675;BME280;41562;44.330;23.802;2023-05-11T03:40:56;100636.44;;;10.56;86.33
55675;BME280;41562;44.330;23.802;2023-05-11T03:43:27;100637.53;;;10.55;86.95
55675;BME280;41562;44.330;23.802;2023-05-11T03:45:56;100648.25;;;10.60;86.90
55675;BME280;41562;44.330;23.802;2023-05-11T03:48:25;100648.75;;;10.62;87.44
55675;BME280;41562;44.330;23.802;2023-05-11T03:50:53;100654.91;;;10.63;87.37
55675;BME280;41562;44.330;23.802;2023-05-11T03:53:22;100646.16;;;10.72;89.11
55675;BME280;41562;44.330;23.802;2023-05-11T03:55:50;100653.84;;;10.64;87.80
55675;BME280;41562;44.330;23.802;2023-05-11T03:58:18;100657.28;;;10.49;88.43
55675;BME280;41562;44.330;23.802;2023-05-11T04:00:46;100646.94;;;10.68;93.61
55675;BME280;41562;44.330;23.802;2023-05-11T04:03:15;100658.34;;;10.48;89.62
55675;BME280;41562;44.330;23.802;2023-05-11T04:05:43;100653.03;;;10.58;88.12
55675;BME280;41562;44.330;23.802;2023-05-11T04:08:11;100649.31;;;10.64;87.73
55675;BME280;41562;44.330;23.802;2023-05-11T04:10:39;100656.84;;;10.67;88.20
55675;BME280;41562;44.330;23.802;2023-05-11T04:13:07;100650.44;;;10.73;86.96
55675;BME280;41562;44.330;23.802;2023-05-11T04:15:34;100645.84;;;10.64;87.54
55675;BME280;41562;44.330;23.802;2023-05-11T04:18:01;100645.91;;;10.74;88.05
55675;BME280;41562;44.330;23.802;2023-05-11T04:20:29;100653.59;;;10.65;87.62
55675;BME280;41562;44.330;23.802;2023-05-11T04:22:56;100650.56;;;10.46;87.75
55675;BME280;41562;44.330;23.802;2023-05-11T04:25:24;100663.66;;;10.43;88.57
55675;BME280;41562;44.330;23.802;2023-05-11T04:27:51;100669.03;;;10.48;89.73
55675;BME280;41562;44.330;23.802;2023-05-11T04:30:19;100661.78;;;10.43;88.79
55675;BME280;41562;44.330;23.802;2023-05-11T04:32:46;100663.31;;;10.29;88.41
55675;BME280;41562;44.330;23.802;2023-05-11T04:35:14;100671.69;;;10.43;87.51
55675;BME280;41562;44.330;23.802;2023-05-11T04:37:41;100663.91;;;10.41;89.67
55675;BME280;41562;44.330;23.802;2023-05-11T04:40:09;100672.78;;;10.52;91.23
55675;BME280;41562;44.330;23.802;2023-05-11T04:42:36;100677.88;;;10.54;91.32
55675;BME280;41562;44.330;23.802;2023-05-11T04:45:04;100681.38;;;10.54;87.35
55675;BME280;41562;44.330;23.802;2023-05-11T04:47:32;100679.19;;;10.51;89.24
55675;BME280;41562;44.330;23.802;2023-05-11T04:49:59;100690.00;;;10.71;87.28
55675;BME280;41562;44.330;23.802;2023-05-11T04:52:27;100670.31;;;11.03;89.96
55675;BME280;41562;44.330;23.802;2023-05-11T04:54:54;100687.78;;;10.58;85.59
55675;BME280;41562;44.330;23.802;2023-05-11T04:57:22;100683.53;;;10.62;86.28
55675;BME280;41562;44.330;23.802;2023-05-11T04:59:49;100673.53;;;13.70;88.58
55675;BME280;41562;44.330;23.802;2023-05-11T05:02:17;100691.28;;;14.58;75.58
55675;BME280;41562;44.330;23.802;2023-05-11T05:04:45;100680.38;;;13.86;74.27
55675;BME280;41562;44.330;23.802;2023-05-11T05:07:12;100684.03;;;13.22;71.55
55675;BME280;41562;44.330;23.802;2023-05-11T05:09:40;100687.09;;;12.01;79.66
55675;BME280;41562;44.330;23.802;2023-05-11T05:12:11;100692.44;;;11.91;78.87
55675;BME280;41562;44.330;23.802;2023-05-11T05:14:40;100687.56;;;11.52;78.59
55675;BME280;41562;44.330;23.802;2023-05-11T05:17:08;100679.25;;;11.34;79.96
55675;BME280;41562;44.330;23.802;2023-05-11T05:19:36;100682.22;;;11.47;82.92
55675;BME280;41562;44.330;23.802;2023-05-11T05:22:03;100693.47;;;11.44;82.12
55675;BME280;41562;44.330;23.802;2023-05-11T05:24:31;100694.75;;;11.26;80.72
55675;BME280;41562;44.330;23.802;2023-05-11T05:26:58;100690.19;;;11.32;80.15
55675;BME280;41562;44.330;23.802;2023-05-11T05:29:25;100688.63;;;11.41;79.76
55675;BME280;41562;44.330;23.802;2023-05-11T05:31:53;100689.72;;;11.65;80.59
55675;BME280;41562;44.330;23.802;2023-05-11T05:34:20;100697.22;;;11.43;79.56
55675;BME280;41562;44.330;23.802;2023-05-11T05:36:48;100688.91;;;11.55;79.47
55675;BME280;41562;44.330;23.802;2023-05-11T05:39:15;100694.78;;;11.42;79.16
55675;BME280;41562;44.330;23.802;2023-05-11T05:41:43;100692.41;;;11.70;81.28
55675;BME280;41562;44.330;23.802;2023-05-11T05:44:10;100699.97;;;11.74;78.05
55675;BME280;41562;44.330;23.802;2023-05-11T05:46:37;100692.44;;;11.86;78.50
55675;BME280;41562;44.330;23.802;2023-05-11T05:49:05;100688.97;;;11.85;76.43
55675;BME280;41562;44.330;23.802;2023-05-11T05:51:32;100699.94;;;12.19;79.43
55675;BME280;41562;44.330;23.802;2023-05-11T05:54:00;100698.59;;;12.01;77.06
55675;BME280;41562;44.330;23.802;2023-05-11T05:56:27;100701.03;;;12.03;76.70
55675;BME280;41562;44.330;23.802;2023-05-11T05:58:54;100703.69;;;12.08;75.29
55675;BME280;41562;44.330;23.802;2023-05-11T06:01:22;100701.28;;;12.32;76.41
55675;BME280;41562;44.330;23.802;2023-05-11T06:03:49;100709.81;;;12.49;74.24
55675;BME280;41562;44.330;23.802;2023-05-11T06:06:17;100715.44;;;12.53;72.85
55675;BME280;41562;44.330;23.802;2023-05-11T06:08:44;100712.41;;;12.79;72.66
55675;BME280;41562;44.330;23.802;2023-05-11T06:11:11;100709.59;;;13.10;75.61
55675;BME280;41562;44.330;23.802;2023-05-11T06:13:39;100712.31;;;13.05;71.87
55675;BME280;41562;44.330;23.802;2023-05-11T06:16:06;100721.13;;;13.10;71.67
55675;BME280;41562;44.330;23.802;2023-05-11T06:18:34;100712.31;;;13.59;70.22
55675;BME280;41562;44.330;23.802;2023-05-11T06:21:02;100717.84;;;14.06;68.56
55675;BME280;41562;44.330;23.802;2023-05-11T06:23:29;100727.16;;;13.85;66.97
55675;BME280;41562;44.330;23.802;2023-05-11T06:25:57;100714.03;;;13.84;66.79
55675;BME280;41562;44.330;23.802;2023-05-11T06:28:24;100710.38;;;14.03;66.17
55675;BME280;41562;44.330;23.802;2023-05-11T06:30:55;100718.94;;;14.63;65.79
55675;BME280;41562;44.330;23.802;2023-05-11T06:33:23;100726.34;;;14.53;61.44
55675;BME280;41562;44.330;23.802;2023-05-11T06:35:50;100723.72;;;14.71;61.34
55675;BME280;41562;44.330;23.802;2023-05-11T06:38:17;100724.28;;;14.68;61.59
55675;BME280;41562;44.330;23.802;2023-05-11T06:40:45;100726.03;;;15.02;62.98
55675;BME280;41562;44.330;23.802;2023-05-11T06:43:12;100731.22;;;14.98;60.68
55675;BME280;41562;44.330;23.802;2023-05-11T06:45:43;100727.81;;;14.87;59.37
55675;BME280;41562;44.330;23.802;2023-05-11T06:48:11;100728.41;;;14.84;60.44
55675;BME280;41562;44.330;23.802;2023-05-11T06:50:38;100722.16;;;15.32;60.47
55675;BME280;41562;44.330;23.802;2023-05-11T06:53:06;100729.56;;;15.21;59.04
55675;BME280;41562;44.330;23.802;2023-05-11T06:55:33;100721.72;;;15.43;58.38
55675;BME280;41562;44.330;23.802;2023-05-11T06:58:01;100730.03;;;15.28;55.92
55675;BME280;41562;44.330;23.802;2023-05-11T07:00:29;100725.94;;;15.30;55.55
55675;BME280;41562;44.330;23.802;2023-05-11T07:02:56;100717.31;;;15.52;55.79
55675;BME280;41562;44.330;23.802;2023-05-11T07:05:24;100721.34;;;15.55;54.99
55675;BME280;41562;44.330;23.802;2023-05-11T07:07:51;100729.81;;;15.43;56.75
55675;BME280;41562;44.330;23.802;2023-05-11T07:10:19;100716.94;;;15.59;56.37
55675;BME280;41562;44.330;23.802;2023-05-11T07:12:48;100728.09;;;15.52;53.38
55675;BME280;41562;44.330;23.802;2023-05-11T07:15:16;100714.78;;;15.61;54.04
55675;BME280;41562;44.330;23.802;2023-05-11T07:17:43;100724.06;;;15.87;52.79
55675;BME280;41562;44.330;23.802;2023-05-11T07:20:11;100715.97;;;15.31;52.61
55675;BME280;41562;44.330;23.802;2023-05-11T07:22:38;100720.66;;;16.14;53.94
55675;BME280;41562;44.330;23.802;2023-05-11T07:25:06;100710.88;;;15.86;50.24
55675;BME280;41562;44.330;23.802;2023-05-11T07:27:34;100712.19;;;15.69;50.15
55675;BME280;41562;44.330;23.802;2023-05-11T07:30:05;100705.50;;;15.86;50.58
55675;BME280;41562;44.330;23.802;2023-05-11T07:32:32;100711.19;;;16.17;51.48
55675;BME280;41562;44.330;23.802;2023-05-11T07:35:00;100708.75;;;16.15;49.20
55675;BME280;41562;44.330;23.802;2023-05-11T07:37:28;100705.22;;;16.47;49.86
55675;BME280;41562;44.330;23.802;2023-05-11T07:39:55;100711.84;;;16.55;47.53
55675;BME280;41562;44.330;23.802;2023-05-11T07:42:23;100711.25;;;16.71;49.75
55675;BME280;41562;44.330;23.802;2023-05-11T07:44:50;100708.97;;;16.19;48.14
55675;BME280;41562;44.330;23.802;2023-05-11T07:47:17;100710.03;;;16.50;49.45
55675;BME280;41562;44.330;23.802;2023-05-11T07:49:45;100711.63;;;16.37;46.81
55675;BME280;41562;44.330;23.802;2023-05-11T07:52:13;100710.53;;;16.06;45.62
55675;BME280;41562;44.330;23.802;2023-05-11T07:54:41;100732.09;;;16.06;46.20
55675;BME280;41562;44.330;23.802;2023-05-11T07:57:09;100692.75;;;16.05;46.50
55675;BME280;41562;44.330;23.802;2023-05-11T07:59:36;100727.50;;;15.93;46.52
55675;BME280;41562;44.330;23.802;2023-05-11T08:02:05;100717.38;;;16.17;48.29
55675;BME280;41562;44.330;23.802;2023-05-11T08:04:33;100722.00;;;16.30;45.66
55675;BME280;41562;44.330;23.802;2023-05-11T08:07:02;100729.81;;;16.45;44.58
55675;BME280;41562;44.330;23.802;2023-05-11T08:09:30;100718.91;;;16.50;43.77
55675;BME280;41562;44.330;23.802;2023-05-11T08:11:57;100722.19;;;16.34;44.22
55675;BME280;41562;44.330;23.802;2023-05-11T08:14:25;100726.72;;;16.52;44.46
55675;BME280;41562;44.330;23.802;2023-05-11T08:16:53;100726.19;;;16.69;44.61
55675;BME280;41562;44.330;23.802;2023-05-11T08:19:20;100718.88;;;16.83;43.41
55675;BME280;41562;44.330;23.802;2023-05-11T08:21:47;100718.16;;;16.91;44.47
55675;BME280;41562;44.330;23.802;2023-05-11T08:24:15;100733.47;;;17.09;42.70
55675;BME280;41562;44.330;23.802;2023-05-11T08:26:42;100718.47;;;16.76;42.73
55675;BME280;41562;44.330;23.802;2023-05-11T08:29:10;100711.88;;;16.68;44.27
55675;BME280;41562;44.330;23.802;2023-05-11T08:31:38;100714.88;;;16.80;45.49
55675;BME280;41562;44.330;23.802;2023-05-11T08:34:06;100723.56;;;17.18;44.27
55675;BME280;41562;44.330;23.802;2023-05-11T08:36:45;100712.63;;;16.55;42.81
55675;BME280;41562;44.330;23.802;2023-05-11T08:39:13;100709.06;;;16.73;43.70
55675;BME280;41562;44.330;23.802;2023-05-11T08:41:41;100726.16;;;17.23;43.84
55675;BME280;41562;44.330;23.802;2023-05-11T08:44:09;100715.16;;;17.06;41.24
55675;BME280;41562;44.330;23.802;2023-05-11T08:46:39;100711.19;;;17.40;41.29
55675;BME280;41562;44.330;23.802;2023-05-11T08:49:10;100710.66;;;17.02;40.89
55675;BME280;41562;44.330;23.802;2023-05-11T08:51:39;100712.34;;;17.25;42.02
55675;BME280;41562;44.330;23.802;2023-05-11T08:54:06;100701.25;;;16.85;42.38
55675;BME280;41562;44.330;23.802;2023-05-11T08:56:35;100719.66;;;16.70;41.47
55675;BME280;41562;44.330;23.802;2023-05-11T08:59:03;100713.72;;;16.40;41.37
55675;BME280;41562;44.330;23.802;2023-05-11T09:01:34;100714.81;;;16.53;42.46
55675;BME280;41562;44.330;23.802;2023-05-11T09:04:02;100717.47;;;16.85;40.89
55675;BME280;41562;44.330;23.802;2023-05-11T09:06:33;100721.50;;;16.88;40.16
55675;BME280;41562;44.330;23.802;2023-05-11T09:09:01;100720.06;;;16.91;42.76
55675;BME280;41562;44.330;23.802;2023-05-11T09:11:28;100721.25;;;17.12;42.55
55675;BME280;41562;44.330;23.802;2023-05-11T09:13:57;100713.63;;;17.14;39.81
55675;BME280;41562;44.330;23.802;2023-05-11T09:16:25;100717.88;;;16.79;39.99
55675;BME280;41562;44.330;23.802;2023-05-11T09:19:03;100712.47;;;16.79;40.37
55675;BME280;41562;44.330;23.802;2023-05-11T09:21:31;100710.97;;;17.00;40.56
55675;BME280;41562;44.330;23.802;2023-05-11T09:23:59;100716.75;;;17.07;41.36
55675;BME280;41562;44.330;23.802;2023-05-11T09:26:26;100706.03;;;17.02;41.94
55675;BME280;41562;44.330;23.802;2023-05-11T09:28:58;100715.47;;;16.91;42.09
55675;BME280;41562;44.330;23.802;2023-05-11T09:31:45;100712.06;;;17.13;42.34
55675;BME280;41562;44.330;23.802;2023-05-11T09:34:18;100699.44;;;17.08;40.87
55675;BME280;41562;44.330;23.802;2023-05-11T09:36:52;100709.00;;;17.28;43.28
55675;BME280;41562;44.330;23.802;2023-05-11T09:39:31;100706.84;;;17.16;43.29
55675;BME280;41562;44.330;23.802;2023-05-11T09:42:15;100701.91;;;17.68;41.89
55675;BME280;41562;44.330;23.802;2023-05-11T09:44:44;100707.84;;;17.56;41.59
55675;BME280;41562;44.330;23.802;2023-05-11T09:47:19;100694.72;;;17.63;42.59
55675;BME280;41562;44.330;23.802;2023-05-11T09:49:47;100697.09;;;18.09;43.99
55675;BME280;41562;44.330;23.802;2023-05-11T09:52:17;100697.06;;;17.79;46.47
55675;BME280;41562;44.330;23.802;2023-05-11T09:54:45;100692.94;;;17.09;43.78
55675;BME280;41562;44.330;23.802;2023-05-11T09:59:51;100700.66;;;17.96;47.44
55675;BME280;41562;44.330;23.802;2023-05-11T10:02:23;100692.16;;;18.42;44.58
55675;BME280;41562;44.330;23.802;2023-05-11T10:04:59;100694.06;;;18.64;43.70
55675;BME280;41562;44.330;23.802;2023-05-11T10:07:31;100685.16;;;18.11;44.80
55675;BME280;41562;44.330;23.802;2023-05-11T10:10:01;100682.44;;;18.11;43.50
55675;BME280;41562;44.330;23.802;2023-05-11T10:12:29;100681.28;;;17.58;44.68
55675;BME280;41562;44.330;23.802;2023-05-11T10:15:00;100674.88;;;17.54;45.11
55675;BME280;41562;44.330;23.802;2023-05-11T10:17:28;100681.19;;;17.14;45.75
55675;BME280;41562;44.330;23.802;2023-05-11T10:19:57;100681.59;;;17.21;46.84
55675;BME280;41562;44.330;23.802;2023-05-11T10:22:25;100679.44;;;16.96;45.02
55675;BME280;41562;44.330;23.802;2023-05-11T10:24:55;100670.78;;;17.21;45.88
55675;BME280;41562;44.330;23.802;2023-05-11T10:27:23;100676.41;;;17.11;44.42
55675;BME280;41562;44.330;23.802;2023-05-11T10:29:51;100674.00;;;17.09;44.73
55675;BME280;41562;44.330;23.802;2023-05-11T10:32:19;100671.38;;;17.32;47.20
55675;BME280;41562;44.330;23.802;2023-05-11T10:34:47;100670.47;;;17.22;48.62
55675;BME280;41562;44.330;23.802;2023-05-11T10:37:15;100661.31;;;18.52;56.05
55675;BME280;41562;44.330;23.802;2023-05-11T10:39:44;100662.91;;;17.91;47.94
55675;BME280;41562;44.330;23.802;2023-05-11T10:45:38;100663.94;;;18.04;47.03
55675;BME280;41562;44.330;23.802;2023-05-11T10:50:59;100662.19;;;17.77;44.50
55675;BME280;41562;44.330;23.802;2023-05-11T11:01:36;100660.47;;;17.81;43.10
55675;BME280;41562;44.330;23.802;2023-05-11T11:04:06;100654.56;;;18.01;45.90
55675;BME280;41562;44.330;23.802;2023-05-11T11:06:36;100647.63;;;18.18;41.87
55675;BME280;41562;44.330;23.802;2023-05-11T11:09:08;100639.19;;;17.66;42.23
55675;BME280;41562;44.330;23.802;2023-05-11T11:11:38;100633.44;;;17.81;43.94
55675;BME280;41562;44.330;23.802;2023-05-11T11:14:07;100636.75;;;18.09;43.58
55675;BME280;41562;44.330;23.802;2023-05-11T11:16:36;100640.75;;;18.12;43.55
55675;BME280;41562;44.330;23.802;2023-05-11T11:21:56;100631.16;;;18.05;43.52
55675;BME280;41562;44.330;23.802;2023-05-11T11:24:41;100630.66;;;17.95;43.77
55675;BME280;41562;44.330;23.802;2023-05-11T11:27:09;100626.81;;;17.96;45.16
55675;BME280;41562;44.330;23.802;2023-05-11T11:29:38;100628.03;;;17.90;45.45
55675;BME280;41562;44.330;23.802;2023-05-11T11:34:46;100621.06;;;18.20;45.09
55675;BME280;41562;44.330;23.802;2023-05-11T11:37:14;100631.31;;;18.00;44.36
55675;BME280;41562;44.330;23.802;2023-05-11T11:42:14;100622.19;;;17.65;44.72
55675;BME280;41562;44.330;23.802;2023-05-11T11:44:43;100612.72;;;17.77;45.35
55675;BME280;41562;44.330;23.802;2023-05-11T11:47:18;100628.69;;;17.64;45.57
55675;BME280;41562;44.330;23.802;2023-05-11T11:49:52;100615.22;;;17.51;46.36
55675;BME280;41562;44.330;23.802;2023-05-11T11:54:54;100617.28;;;17.54;47.08
55675;BME280;41562;44.330;23.802;2023-05-11T12:00:01;100610.31;;;17.75;49.01
55675;BME280;41562;44.330;23.802;2023-05-11T12:02:30;100605.22;;;17.74;47.53
55675;BME280;41562;44.330;23.802;2023-05-11T12:07:40;100611.19;;;17.62;46.78
55675;BME280;41562;44.330;23.802;2023-05-11T12:10:08;100602.31;;;17.48;47.11
55675;BME280;41562;44.330;23.802;2023-05-11T12:12:37;100617.78;;;17.34;47.68
55675;BME280;41562;44.330;23.802;2023-05-11T12:15:06;100611.03;;;17.45;47.66
55675;BME280;41562;44.330;23.802;2023-05-11T12:17:36;100607.69;;;17.61;47.87
55675;BME280;41562;44.330;23.802;2023-05-11T12:20:12;100607.84;;;17.65;46.97
55675;BME280;41562;44.330;23.802;2023-05-11T12:22:40;100615.38;;;17.68;49.35
55675;BME280;41562;44.330;23.802;2023-05-11T12:25:08;100602.94;;;17.98;46.47
55675;BME280;41562;44.330;23.802;2023-05-11T12:27:54;100596.03;;;18.14;46.07
55675;BME280;41562;44.330;23.802;2023-05-11T12:30:23;100597.38;;;17.94;46.43
55675;BME280;41562;44.330;23.802;2023-05-11T12:32:51;100594.91;;;17.84;45.24
55675;BME280;41562;44.330;23.802;2023-05-11T12:35:30;100587.28;;;17.86;43.15
55675;BME280;41562;44.330;23.802;2023-05-11T12:37:59;100586.56;;;17.94;44.10
55675;BME280;41562;44.330;23.802;2023-05-11T12:40:27;100575.88;;;17.98;44.72
55675;BME280;41562;44.330;23.802;2023-05-11T12:42:56;100588.91;;;17.96;45.57
55675;BME280;41562;44.330;23.802;2023-05-11T12:45:25;100570.66;;;18.01;44.39
55675;BME280;41562;44.330;23.802;2023-05-11T12:47:54;100572.59;;;18.09;45.10
55675;BME280;41562;44.330;23.802;2023-05-11T12:50:23;100571.00;;;18.08;45.16
55675;BME280;41562;44.330;23.802;2023-05-11T12:52:50;100572.94;;;18.08;46.67
55675;BME280;41562;44.330;23.802;2023-05-11T12:55:28;100569.66;;;17.89;42.45
55675;BME280;41562;44.330;23.802;2023-05-11T12:58:15;100567.13;;;17.92;42.65
55675;BME280;41562;44.330;23.802;2023-05-11T13:00:56;100574.47;;;18.00;43.75
55675;BME280;41562;44.330;23.802;2023-05-11T13:03:26;100571.00;;;18.08;46.88
55675;BME280;41562;44.330;23.802;2023-05-11T13:06:06;100552.50;;;17.62;43.66
55675;BME280;41562;44.330;23.802;2023-05-11T13:08:36;100561.94;;;17.74;44.43
55675;BME280;41562;44.330;23.802;2023-05-11T13:11:23;100559.59;;;17.81;45.20
55675;BME280;41562;44.330;23.802;2023-05-11T13:13:55;100562.50;;;17.93;48.48
55675;BME280;41562;44.330;23.802;2023-05-11T13:16:27;100572.63;;;17.79;44.28
55675;BME280;41562;44.330;23.802;2023-05-11T13:18:56;100566.81;;;17.63;44.67
55675;BME280;41562;44.330;23.802;2023-05-11T13:21:23;100559.53;;;17.72;45.49
55675;BME280;41562;44.330;23.802;2023-05-11T13:23:51;100557.81;;;17.76;47.01
55675;BME280;41562;44.330;23.802;2023-05-11T13:26:23;100547.06;;;17.93;46.78
55675;BME280;41562;44.330;23.802;2023-05-11T13:28:53;100551.19;;;17.91;46.03
55675;BME280;41562;44.330;23.802;2023-05-11T13:31:49;100549.00;;;17.62;46.48